createdAt,value
2023-03-05T00:01:33.588Z,2.83
2023-03-05T00:04:02.759Z,3.25
2023-03-05T00:06:32.741Z,2.72
2023-03-05T00:09:01.170Z,2.42
2023-03-05T00:11:30.994Z,3.03
2023-03-05T00:14:00.490Z,3.15
2023-03-05T00:16:29.842Z,3.35
2023-03-05T00:18:59.313Z,3.20
2023-03-05T00:21:32.832Z,3.95
2023-03-05T00:24:02.352Z,3.25
2023-03-05T00:26:31.240Z,2.92
2023-03-05T00:29:00.398Z,3.72
2023-03-05T00:31:30.688Z,4.53
2023-03-05T00:34:04.857Z,3.90
2023-03-05T00:36:33.016Z,3.42
2023-03-05T00:39:01.212Z,3.88
2023-03-05T00:41:29.710Z,3.80
2023-03-05T00:44:00.516Z,4.03
2023-03-05T00:46:28.894Z,4.10
2023-03-05T00:48:57.733Z,5.90
2023-03-05T00:51:26.987Z,4.22
2023-03-05T00:53:55.809Z,4.35
2023-03-05T00:56:24.080Z,4.15
2023-03-05T00:58:53.432Z,4.00
2023-03-05T01:01:21.409Z,3.40
2023-03-05T01:03:49.426Z,4.20
2023-03-05T01:06:20.281Z,3.65
2023-03-05T01:08:48.205Z,4.23
2023-03-05T01:11:16.595Z,3.08
2023-03-05T01:13:44.813Z,3.78
2023-03-05T01:16:12.852Z,4.50
2023-03-05T01:18:40.965Z,3.63
2023-03-05T01:21:09.124Z,4.05
2023-03-05T01:23:37.755Z,4.15
2023-03-05T01:26:08.859Z,3.47
2023-03-05T01:28:38.629Z,3.83
2023-03-05T01:31:11.758Z,4.90
2023-03-05T01:33:39.945Z,4.47
2023-03-05T01:36:15.062Z,4.22
2023-03-05T01:38:44.026Z,3.72
2023-03-05T01:41:13.132Z,3.83
2023-03-05T01:43:41.456Z,3.90
2023-03-05T01:46:26.379Z,3.15
2023-03-05T01:49:00.207Z,2.85
2023-03-05T01:51:32.017Z,3.33
2023-03-05T01:54:03.678Z,2.53
2023-03-05T01:56:32.031Z,2.85
2023-03-05T01:59:03.817Z,3.08
2023-03-05T02:04:02.062Z,2.20
2023-03-05T02:06:30.428Z,2.58
2023-03-05T02:08:58.341Z,1.88
2023-03-05T02:11:26.473Z,1.80
2023-03-05T02:13:54.419Z,2.20
2023-03-05T02:16:22.627Z,1.83
2023-03-05T02:18:50.452Z,1.67
2023-03-05T02:21:29.341Z,1.63
2023-03-05T02:23:57.368Z,2.30
2023-03-05T02:26:26.196Z,1.80
2023-03-05T02:29:00.283Z,1.75
2023-03-05T02:31:31.387Z,2.00
2023-03-05T02:33:59.328Z,2.20
2023-03-05T02:36:27.628Z,2.72
2023-03-05T02:38:57.396Z,1.60
2023-03-05T02:41:25.764Z,1.42
2023-03-05T02:43:55.563Z,1.30
2023-03-05T02:46:23.859Z,1.33
2023-03-05T02:48:51.984Z,1.48
2023-03-05T02:51:20.302Z,1.35
2023-03-05T02:53:49.148Z,1.50
2023-03-05T02:56:17.526Z,1.10
2023-03-05T02:58:45.457Z,1.50
2023-03-05T03:01:13.413Z,1.88
2023-03-05T03:03:44.579Z,1.50
2023-03-05T03:06:12.536Z,1.38
2023-03-05T03:08:40.459Z,1.20
2023-03-05T03:11:15.712Z,1.38
2023-03-05T03:13:44.016Z,1.98
2023-03-05T03:16:14.173Z,1.55
2023-03-05T03:18:42.630Z,1.35
2023-03-05T03:21:16.664Z,1.52
2023-03-05T03:23:44.770Z,1.40
2023-03-05T03:26:12.748Z,1.30
2023-03-05T03:28:41.062Z,2.08
2023-03-05T03:31:09.162Z,1.27
2023-03-05T03:33:37.078Z,1.40
2023-03-05T03:36:08.303Z,1.48
2023-03-05T03:38:36.323Z,1.40
2023-03-05T03:41:07.908Z,1.65
2023-03-05T03:43:37.180Z,2.78
2023-03-05T03:46:08.924Z,1.73
2023-03-05T03:48:36.970Z,1.70
2023-03-05T03:51:06.412Z,1.90
2023-03-05T03:53:34.316Z,1.70
2023-03-05T03:56:02.196Z,1.70
2023-03-05T03:58:30.617Z,1.80
2023-03-05T04:00:58.627Z,1.67
2023-03-05T04:03:26.589Z,1.88
2023-03-05T04:05:54.530Z,2.40
2023-03-05T04:08:22.532Z,2.20
2023-03-05T04:10:50.416Z,2.38
2023-03-05T04:13:18.229Z,1.75
2023-03-05T04:15:46.206Z,2.10
2023-03-05T04:18:14.168Z,2.40
2023-03-05T04:20:42.228Z,1.92
2023-03-05T04:23:10.302Z,2.25
2023-03-05T04:25:38.276Z,2.47
2023-03-05T04:28:06.414Z,2.20
2023-03-05T04:30:34.823Z,2.05
2023-03-05T04:33:03.058Z,2.33
2023-03-05T04:35:31.183Z,2.20
2023-03-05T04:37:59.166Z,2.40
2023-03-05T04:40:27.282Z,3.30
2023-03-05T04:42:55.090Z,3.00
2023-03-05T04:45:23.008Z,2.97
2023-03-05T04:47:50.740Z,3.25
2023-03-05T04:50:19.794Z,3.83
2023-03-05T04:52:48.294Z,3.95
2023-03-05T04:55:18.416Z,4.32
2023-03-05T04:57:46.645Z,4.57
2023-03-05T05:00:17.408Z,4.32
2023-03-05T05:03:10.891Z,3.60
2023-03-05T05:05:38.767Z,4.55
2023-03-05T05:08:06.734Z,5.03
2023-03-05T05:10:34.853Z,6.35
2023-03-05T05:13:02.792Z,6.72
2023-03-05T05:15:30.826Z,7.88
2023-03-05T05:17:58.805Z,8.60
2023-03-05T05:20:26.613Z,7.45
2023-03-05T05:22:54.325Z,7.13
2023-03-05T05:25:22.332Z,7.38
2023-03-05T05:27:50.278Z,5.82
2023-03-05T05:30:18.356Z,6.70
2023-03-05T05:32:46.512Z,7.25
2023-03-05T05:35:14.477Z,6.05
2023-03-05T05:37:42.585Z,5.97
2023-03-05T05:40:11.195Z,5.55
2023-03-05T05:42:39.295Z,6.60
2023-03-05T05:45:08.196Z,7.10
2023-03-05T05:47:36.356Z,6.50
2023-03-05T05:50:05.440Z,7.25
2023-03-05T05:52:33.347Z,6.50
2023-03-05T05:55:01.221Z,5.80
2023-03-05T05:57:29.195Z,6.95
2023-03-05T05:59:56.971Z,7.25
2023-03-05T06:02:24.993Z,7.68
2023-03-05T06:04:52.992Z,7.78
2023-03-05T06:07:21.042Z,6.63
2023-03-05T06:09:48.985Z,4.68
2023-03-05T06:12:16.936Z,4.25
2023-03-05T06:14:44.926Z,5.22
2023-03-05T06:17:14.805Z,4.53
2023-03-05T06:19:44.978Z,3.80
2023-03-05T06:22:13.025Z,3.78
2023-03-05T06:24:41.042Z,3.58
2023-03-05T06:27:09.136Z,3.60
2023-03-05T06:29:37.019Z,4.00
2023-03-05T06:32:05.678Z,4.82
2023-03-05T06:34:33.583Z,4.93
2023-03-05T06:37:01.496Z,4.20
2023-03-05T06:39:31.744Z,4.22
2023-03-05T06:41:59.747Z,3.92
2023-03-05T06:44:27.724Z,5.13
2023-03-05T06:46:55.851Z,5.03
2023-03-05T06:49:23.833Z,4.90
2023-03-05T06:51:51.812Z,4.65
2023-03-05T06:54:19.917Z,4.47
2023-03-05T06:56:48.395Z,5.00
2023-03-05T06:59:17.595Z,4.82
2023-03-05T07:01:46.275Z,5.93
2023-03-05T07:04:17.473Z,4.80
2023-03-05T07:06:46.005Z,4.47
2023-03-05T07:09:16.987Z,4.45
2023-03-05T07:11:44.974Z,4.45
2023-03-05T07:14:13.222Z,4.40
2023-03-05T07:16:41.244Z,3.13
2023-03-05T07:19:11.146Z,3.90
2023-03-05T07:21:39.998Z,2.95
2023-03-05T07:24:08.952Z,3.53
2023-03-05T07:26:37.017Z,2.92
2023-03-05T07:29:05.256Z,3.38
2023-03-05T07:31:33.475Z,3.22
2023-03-05T07:34:06.727Z,4.78
2023-03-05T07:36:35.327Z,5.00
2023-03-05T07:39:05.118Z,5.30
2023-03-05T07:41:33.449Z,4.60
2023-03-05T07:44:01.366Z,3.45
2023-03-05T07:46:32.446Z,3.30
2023-03-05T07:49:00.955Z,3.35
2023-03-05T07:51:29.266Z,3.88
2023-03-05T07:53:58.984Z,3.42
2023-03-05T07:56:32.268Z,3.33
2023-03-05T07:59:08.196Z,3.78
2023-03-05T08:01:37.842Z,2.42
2023-03-05T08:04:06.991Z,3.97
2023-03-05T08:06:34.903Z,2.65
2023-03-05T08:09:02.876Z,2.95
2023-03-05T08:11:30.811Z,2.22
2023-03-05T08:13:59.665Z,3.03
2023-03-05T08:16:28.239Z,3.05
2023-03-05T08:18:57.709Z,3.92
2023-03-05T08:21:33.660Z,4.22
2023-03-05T08:24:03.876Z,4.05
2023-03-05T08:26:35.060Z,4.30
2023-03-05T08:29:03.639Z,3.35
2023-03-05T08:31:31.977Z,3.83
2023-03-05T08:34:01.354Z,4.20
2023-03-05T08:36:29.429Z,3.95
2023-03-05T08:38:59.411Z,4.25
2023-03-05T08:41:27.706Z,3.60
2023-03-05T08:43:55.561Z,2.90
2023-03-05T08:46:23.598Z,3.60
2023-03-05T08:48:51.966Z,3.70
2023-03-05T08:51:23.752Z,4.97
2023-03-05T08:56:19.926Z,4.93
2023-03-05T08:58:48.532Z,5.28
2023-03-05T09:01:16.574Z,5.00
2023-03-05T09:03:44.827Z,4.47
2023-03-05T09:06:13.083Z,4.22
2023-03-05T09:08:41.460Z,3.88
2023-03-05T09:11:11.937Z,3.70
2023-03-05T09:13:40.016Z,3.70
2023-03-05T09:16:13.710Z,4.00
2023-03-05T09:18:41.984Z,3.50
2023-03-05T09:21:17.611Z,3.05
2023-03-05T09:23:49.829Z,2.38
2023-03-05T09:26:19.552Z,1.40
2023-03-05T09:28:47.964Z,1.00
2023-03-05T09:31:16.394Z,0.80
2023-03-05T09:33:44.475Z,1.23
2023-03-05T09:36:26.894Z,1.42
2023-03-05T09:38:55.060Z,1.45
2023-03-05T09:41:31.370Z,1.35
2023-03-05T09:44:09.044Z,1.50
2023-03-05T09:46:47.732Z,1.30
2023-03-05T09:49:33.891Z,1.40
2023-03-05T09:52:13.524Z,1.65
2023-03-05T09:54:43.696Z,1.70
2023-03-05T09:57:45.132Z,1.90
2023-03-05T10:00:42.726Z,2.35
2023-03-05T10:03:31.331Z,2.08
2023-03-05T10:06:21.051Z,2.55
2023-03-05T10:08:59.088Z,2.80
2023-03-05T10:11:45.032Z,2.20
2023-03-05T10:14:37.136Z,3.00
2023-03-05T10:17:36.116Z,2.22
2023-03-05T10:20:29.791Z,2.60
2023-03-05T10:23:09.426Z,1.90
2023-03-05T10:26:07.235Z,1.90
2023-03-05T10:29:16.498Z,1.52
2023-03-05T10:31:57.475Z,1.70
2023-03-05T10:34:39.980Z,1.70
2023-03-05T10:37:47.670Z,1.10
2023-03-05T10:40:33.653Z,1.30
2023-03-05T10:43:07.872Z,1.67
2023-03-05T10:45:41.806Z,1.30
2023-03-05T10:48:32.274Z,1.02
2023-03-05T10:51:14.562Z,1.27
2023-03-05T10:53:56.153Z,1.20
2023-03-05T10:56:26.838Z,1.02
2023-03-05T10:59:09.517Z,1.88
2023-03-05T11:01:37.978Z,1.20
2023-03-05T11:04:29.649Z,1.18
2023-03-05T11:07:27.239Z,1.10
2023-03-05T11:10:10.537Z,1.13
2023-03-05T11:12:39.549Z,1.67
2023-03-05T11:15:10.487Z,2.05
2023-03-05T11:17:44.853Z,1.95
2023-03-05T11:20:34.878Z,1.70
2023-03-05T11:23:19.423Z,2.50
2023-03-05T11:26:22.785Z,1.60
2023-03-05T11:28:53.454Z,1.30
2023-03-05T11:31:30.456Z,1.40
2023-03-05T11:34:08.637Z,1.42
2023-03-05T11:36:44.615Z,1.60
2023-03-05T11:39:22.485Z,1.42
2023-03-05T11:41:54.448Z,1.60
2023-03-05T11:44:35.787Z,1.48
2023-03-05T11:47:24.656Z,1.67
2023-03-05T11:50:01.264Z,1.65
2023-03-05T11:52:32.374Z,1.73
2023-03-05T11:55:18.137Z,1.83
2023-03-05T11:58:07.302Z,1.50
2023-03-05T12:00:37.722Z,1.75
2023-03-05T12:03:12.454Z,1.27
2023-03-05T12:05:44.337Z,1.33
2023-03-05T12:08:21.623Z,1.40
2023-03-05T12:10:49.345Z,1.23
2023-03-05T12:13:29.207Z,1.40
2023-03-05T12:16:05.983Z,1.02
2023-03-05T12:19:02.026Z,0.95
2023-03-05T12:21:38.862Z,0.90
2023-03-05T12:24:28.481Z,0.90
2023-03-05T12:26:59.467Z,1.05
2023-03-05T12:29:43.144Z,1.08
2023-03-05T12:32:23.346Z,1.10
2023-03-05T12:34:58.323Z,1.25
2023-03-05T12:37:29.253Z,1.20
2023-03-05T12:40:13.025Z,1.98
2023-03-05T12:42:52.256Z,2.10
2023-03-05T12:45:23.274Z,1.65
2023-03-05T12:47:57.480Z,1.40
2023-03-05T12:50:28.328Z,1.30
2023-03-05T12:53:18.802Z,1.73
2023-03-05T12:55:46.632Z,1.85
2023-03-05T12:58:49.714Z,2.22
2023-03-05T13:01:50.798Z,1.80
2023-03-05T13:04:23.685Z,1.50
2023-03-05T13:07:15.800Z,1.35
2023-03-05T13:09:55.483Z,0.90
2023-03-05T13:12:28.533Z,0.80
2023-03-05T13:15:05.362Z,1.30
2023-03-05T13:17:40.805Z,1.05
2023-03-05T13:20:39.634Z,1.00
2023-03-05T13:23:28.155Z,0.93
2023-03-05T13:26:12.496Z,0.93
2023-03-05T13:28:41.988Z,1.17
2023-03-05T13:31:19.331Z,1.20
2023-03-05T13:33:53.511Z,1.17
2023-03-05T13:36:22.779Z,1.60
2023-03-05T13:38:51.547Z,1.50
2023-03-05T13:41:24.526Z,1.73
2023-03-05T13:43:55.374Z,1.60
2023-03-05T13:46:35.896Z,1.55
2023-03-05T13:49:23.648Z,1.52
2023-03-05T13:51:54.938Z,1.50
2023-03-05T13:54:24.696Z,1.55
2023-03-05T13:57:05.716Z,1.52
2023-03-05T13:59:35.989Z,2.00
2023-03-05T14:02:19.785Z,1.95
2023-03-05T14:04:48.432Z,1.67
2023-03-05T14:07:27.199Z,2.08
2023-03-05T14:09:57.721Z,1.10
2023-03-05T14:12:41.204Z,1.00
2023-03-05T14:15:24.217Z,1.05
2023-03-05T14:17:52.909Z,1.20
2023-03-05T14:20:29.486Z,1.20
2023-03-05T14:22:59.558Z,1.27
2023-03-05T14:25:39.968Z,1.50
2023-03-05T14:28:21.160Z,1.10
2023-03-05T14:30:51.080Z,1.25
2023-03-05T14:33:30.957Z,1.00
2023-03-05T14:36:01.050Z,1.38
2023-03-05T14:38:31.694Z,1.10
2023-03-05T14:41:19.390Z,1.00
2023-03-05T14:43:47.350Z,1.20
2023-03-05T14:46:15.285Z,1.23
2023-03-05T14:48:43.545Z,0.70
2023-03-05T14:51:14.051Z,0.88
2023-03-05T14:53:47.439Z,1.13
2023-03-05T14:56:24.650Z,1.10
2023-03-05T14:58:53.238Z,1.40
2023-03-05T15:01:21.396Z,0.98
2023-03-05T15:03:49.441Z,0.85
2023-03-05T15:06:38.360Z,1.13
2023-03-05T15:09:07.776Z,0.82
2023-03-05T15:11:35.734Z,0.90
2023-03-05T15:14:03.632Z,1.00
2023-03-05T15:16:32.235Z,0.73
2023-03-05T15:19:00.984Z,0.70
2023-03-05T15:21:30.499Z,0.70
2023-03-05T15:23:59.284Z,0.82
2023-03-05T15:26:27.372Z,0.80
2023-03-05T15:28:55.317Z,0.80
2023-03-05T15:31:23.603Z,1.02
2023-03-05T15:33:54.326Z,1.15
2023-03-05T15:36:22.142Z,1.10
2023-03-05T15:38:50.870Z,1.00
2023-03-05T15:41:18.970Z,0.82
2023-03-05T15:43:46.866Z,0.80
2023-03-05T15:46:14.863Z,0.95
2023-03-05T15:48:48.064Z,0.90
2023-03-05T15:51:17.477Z,1.00
2023-03-05T15:53:46.519Z,0.90
2023-03-05T15:56:18.533Z,1.00
2023-03-05T15:58:47.019Z,0.88
2023-03-05T16:01:16.057Z,0.73
2023-03-05T16:03:45.616Z,1.00
2023-03-05T16:06:16.231Z,0.75
2023-03-05T16:08:45.212Z,0.90
2023-03-05T16:11:13.410Z,1.00
2023-03-05T16:13:42.229Z,1.13
2023-03-05T16:16:11.001Z,0.75
2023-03-05T16:18:41.777Z,0.98
2023-03-05T16:21:09.883Z,1.83
2023-03-05T16:23:38.413Z,1.05
2023-03-05T16:26:07.766Z,1.00
2023-03-05T16:28:35.682Z,0.82
2023-03-05T16:31:03.839Z,1.08
2023-03-05T16:33:34.838Z,1.10
2023-03-05T16:36:11.951Z,1.00
2023-03-05T16:38:41.075Z,0.98
2023-03-05T16:41:09.146Z,1.00
2023-03-05T16:43:37.074Z,1.02
2023-03-05T16:46:05.979Z,1.10
2023-03-05T16:48:35.951Z,1.33
2023-03-05T16:51:05.828Z,1.30
2023-03-05T16:53:34.137Z,1.00
2023-03-05T16:56:07.190Z,0.93
2023-03-05T16:58:37.943Z,0.80
2023-03-05T17:01:10.796Z,0.98
2023-03-05T17:03:43.643Z,0.90
2023-03-05T17:06:15.319Z,1.15
2023-03-05T17:08:44.252Z,1.10
2023-03-05T17:11:12.667Z,1.05
2023-03-05T17:13:40.899Z,0.98
2023-03-05T17:16:10.159Z,1.23
2023-03-05T17:18:38.147Z,1.10
2023-03-05T17:21:07.843Z,1.00
2023-03-05T17:23:40.014Z,1.20
2023-03-05T17:26:14.033Z,1.25
2023-03-05T17:28:42.438Z,1.25
2023-03-05T17:31:10.446Z,1.13
2023-03-05T17:33:44.016Z,1.42
2023-03-05T17:36:18.769Z,1.13
2023-03-05T17:38:47.805Z,1.08
2023-03-05T17:41:20.173Z,1.20
2023-03-05T17:43:48.067Z,1.30
2023-03-05T17:46:16.367Z,1.20
2023-03-05T17:48:44.341Z,1.30
2023-03-05T17:51:13.940Z,1.40
2023-03-05T17:53:41.801Z,1.40
2023-03-05T17:56:14.010Z,1.40
2023-03-05T17:58:42.086Z,1.52
2023-03-05T18:01:11.164Z,1.60
2023-03-05T18:03:39.505Z,1.20
2023-03-05T18:06:07.368Z,1.10
2023-03-05T18:08:35.144Z,1.38
2023-03-05T18:11:02.778Z,1.13
2023-03-05T18:13:30.655Z,1.15
2023-03-05T18:16:01.869Z,1.38
2023-03-05T18:18:29.734Z,1.17
2023-03-05T18:20:57.578Z,1.40
2023-03-05T18:23:26.414Z,1.00
2023-03-05T18:25:57.458Z,1.30
2023-03-05T18:28:26.147Z,1.17
2023-03-05T18:30:53.863Z,1.25
2023-03-05T18:33:24.219Z,1.35
2023-03-05T18:35:52.878Z,1.63
2023-03-05T18:38:22.873Z,1.25
2023-03-05T18:40:51.571Z,1.30
2023-03-05T18:43:22.506Z,1.30
2023-03-05T18:45:58.671Z,1.47
2023-03-05T18:48:27.083Z,1.10
2023-03-05T18:50:55.121Z,1.10
2023-03-05T18:53:23.372Z,1.23
2023-03-05T18:55:53.508Z,1.60
2023-03-05T18:58:22.402Z,1.23
2023-03-05T19:00:52.100Z,1.40
2023-03-05T19:03:21.872Z,1.17
2023-03-05T19:05:51.408Z,1.20
2023-03-05T19:08:19.799Z,1.42
2023-03-05T19:10:48.216Z,1.20
2023-03-05T19:13:40.107Z,1.30
2023-03-05T19:16:17.854Z,1.25
2023-03-05T19:19:11.657Z,1.30
2023-03-05T19:21:39.964Z,1.50
2023-03-05T19:24:08.174Z,1.55
2023-03-05T19:26:36.292Z,1.42
2023-03-05T19:29:04.743Z,1.33
2023-03-05T19:31:32.645Z,1.50
2023-03-05T19:34:03.942Z,1.50
2023-03-05T19:36:32.662Z,0.90
2023-03-05T19:39:01.134Z,1.40
2023-03-05T19:41:31.814Z,1.83
2023-03-05T19:43:59.796Z,1.20
2023-03-05T19:46:27.832Z,1.60
2023-03-05T19:48:55.921Z,1.08
2023-03-05T19:51:25.365Z,0.98
2023-03-05T19:53:53.869Z,1.60
2023-03-05T19:56:21.732Z,1.20
2023-03-05T19:58:49.634Z,1.63
2023-03-05T20:01:18.466Z,1.50
2023-03-05T20:03:47.831Z,1.70
2023-03-05T20:06:16.896Z,1.30
2023-03-05T20:08:45.047Z,1.77
2023-03-05T20:11:14.678Z,1.67
2023-03-05T20:13:43.265Z,1.55
2023-03-05T20:16:18.719Z,1.80
2023-03-05T20:18:47.196Z,1.45
2023-03-05T20:21:21.652Z,1.60
2023-03-05T20:23:54.155Z,1.30
2023-03-05T20:26:23.655Z,1.67
2023-03-05T20:28:51.538Z,1.50
2023-03-05T20:31:20.861Z,1.27
2023-03-05T20:33:48.796Z,1.35
2023-03-05T20:36:16.807Z,1.52
2023-03-05T20:38:45.954Z,1.50
2023-03-05T20:41:16.823Z,1.48
2023-03-05T20:43:49.738Z,1.33
2023-03-05T20:46:29.699Z,1.30
2023-03-05T20:49:00.241Z,1.98
2023-03-05T20:51:36.238Z,1.70
2023-03-05T20:54:07.167Z,1.27
2023-03-05T20:56:39.364Z,2.00
2023-03-05T20:59:08.981Z,1.40
2023-03-05T21:01:41.695Z,1.30
2023-03-05T21:04:09.823Z,1.40
2023-03-05T21:06:37.951Z,1.60
2023-03-05T21:09:06.226Z,2.10
2023-03-05T21:11:35.747Z,1.48
2023-03-05T21:14:03.570Z,1.30
2023-03-05T21:16:31.446Z,1.70
2023-03-05T21:18:59.369Z,1.50
2023-03-05T21:21:27.214Z,1.50
2023-03-05T21:23:56.023Z,1.30
2023-03-05T21:26:24.046Z,1.42
2023-03-05T21:28:55.217Z,1.30
2023-03-05T21:31:23.970Z,1.52
2023-03-05T21:33:55.169Z,1.50
2023-03-05T21:36:23.073Z,2.30
2023-03-05T21:38:51.336Z,1.70
2023-03-05T21:41:20.709Z,1.60
2023-03-05T21:43:48.733Z,1.30
2023-03-05T21:46:16.706Z,2.30
2023-03-05T21:48:44.646Z,1.30
2023-03-05T21:51:14.552Z,1.20
2023-03-05T21:53:42.643Z,1.65
2023-03-05T21:56:17.476Z,1.10
2023-03-05T21:58:47.083Z,1.58
2023-03-05T22:01:16.363Z,1.58
2023-03-05T22:03:44.326Z,1.50
2023-03-05T22:06:13.694Z,1.52
2023-03-05T22:08:41.842Z,1.73
2023-03-05T22:11:14.278Z,1.77
2023-03-05T22:13:42.232Z,1.30
2023-03-05T22:16:10.201Z,1.58
2023-03-05T22:18:37.870Z,1.65
2023-03-05T22:21:14.002Z,1.50
2023-03-05T22:23:41.763Z,1.05
2023-03-05T22:26:12.366Z,1.17
2023-03-05T22:28:40.311Z,1.13
2023-03-05T22:31:08.781Z,1.67
2023-03-05T22:33:36.699Z,1.60
2023-03-05T22:36:12.588Z,1.60
2023-03-05T22:38:40.633Z,1.77
2023-03-05T22:41:10.377Z,1.55
2023-03-05T22:43:39.044Z,1.77
2023-03-05T22:46:16.006Z,1.35
2023-03-05T22:48:44.295Z,1.80
2023-03-05T22:51:13.343Z,1.63
2023-03-05T22:53:44.185Z,1.77
2023-03-05T22:56:19.233Z,1.75
2023-03-05T22:58:47.285Z,1.60
2023-03-05T23:01:20.984Z,1.52
2023-03-05T23:03:58.823Z,1.70
2023-03-05T23:06:28.116Z,1.70
2023-03-05T23:08:55.931Z,1.58
2023-03-05T23:11:23.768Z,1.60
2023-03-05T23:13:51.580Z,1.80
2023-03-05T23:16:19.507Z,1.40
2023-03-05T23:18:47.500Z,1.90
2023-03-05T23:21:15.557Z,1.58
2023-03-05T23:23:43.438Z,1.83
2023-03-05T23:26:11.479Z,1.63
2023-03-05T23:28:39.474Z,1.50
2023-03-05T23:31:07.312Z,1.60
2023-03-05T23:33:35.001Z,1.83
2023-03-05T23:36:02.868Z,1.98
2023-03-05T23:38:30.981Z,1.90
2023-03-05T23:41:03.801Z,2.03
2023-03-05T23:43:31.910Z,1.77
2023-03-05T23:46:01.849Z,1.80
2023-03-05T23:48:31.548Z,2.08
2023-03-05T23:50:59.722Z,1.80
2023-03-05T23:53:29.532Z,1.90
2023-03-05T23:55:59.408Z,1.60
2023-03-05T23:58:27.348Z,1.80
